• Join FlightAware (Why Join?)
  • Login
  • US Flag 
12:09PM EDT


 

Airport Tracker/Info


-or-


 

Live Flight TrackerFlight Track Log ✈ AWE2690 ✈ 05-Sep-2013 ✈ KIAD - KCLT

Flight Track Log - Related Links

Times and Time Zones

All times are in EDT time to prevent confusion due to time zone crossing. See the AWE2690 flight status page for this flight to view local times or setup timezone preferences in your user account.

Time Position Orientation Groundspeed Altitude Reporting Facility
EDT Latitude Longitude Course Direction KTS MPH feet Rate Location/Type
01:41PM 38.9167 -77.5333 224° Southwest 200 230 3,200  Level Potomac TRACON
01:42PM 38.8833 -77.6000 237° Southwest 267 307 6,600 2,640 Climbing Potomac TRACON
01:43PM 38.6217 -77.5157 189° South  Level FlightAware Approximate
01:44PM 38.5155 -77.5353 185° South  Level FlightAware Approximate
01:44PM 38.7111 -77.5950 179° South 309 356 11,100  Level Washington Center
01:45PM 38.4086 -77.5472 185° South  Level FlightAware Approximate
01:45PM 38.6092 -77.5922 179° South 335 386 13,200  Level Washington Center
01:46PM 38.3435 -77.6331 224° Southwest  Level FlightAware Approximate
01:46PM 38.5244 -77.6642 214° Southwest 344 396 16,100  Level Washington Center
01:47PM 38.4375 -77.7492 217° Southwest 368 423 18,500 2,400 Climbing Washington Center
01:48PM 38.3525 -77.8317 217° Southwest 385 443 21,000 2,100 Climbing Washington Center
01:49PM 38.2611 -77.9214 218° Southwest 403 464 22,800 1,500 Climbing Washington Center
01:50PM 38.1656 -78.0108 216° Southwest 415 478 24,000 600 Climbing Washington Center
01:51PM 38.0678 -78.1028 217° Southwest 439 505 24,000  Level Washington Center
01:52PM 37.9800 -78.2078 223° Southwest 439 505 24,000  Level Washington Center
01:53PM 37.9025 -78.3208 229° Southwest 434 499 24,000  Level Washington Center
01:54PM 37.8206 -78.4361 228° Southwest 439 505 24,000  Level Washington Center
01:55PM 37.7428 -78.5489 229° Southwest 444 511 24,000  Level Washington Center
01:56PM 37.6692 -78.6561 229° Southwest 444 511 24,000  Level Washington Center
01:57PM 37.5869 -78.7681 227° Southwest 449 517 24,000  Level Washington Center
01:58PM 37.5067 -78.8825 229° Southwest 449 517 24,000  Level Washington Center
01:59PM 37.4242 -78.9994 228° Southwest 449 517 24,000  Level Washington Center
02:00PM 37.3414 -79.1158 228° Southwest 454 522 24,000  Level Washington Center
02:01PM 37.2244 -79.2567 224° Southwest 454 522 24,000  Level Washington Center
02:02PM 37.1217 -79.3453 215° Southwest 449 517 24,000  Level Washington Center
02:03PM 37.0167 -79.4339 214° Southwest 461 531 24,000  Level Washington Center
02:04PM 36.9094 -79.5222 213° Southwest 461 531 24,000  Level Washington Center
02:05PM 36.8067 -79.6050 213° Southwest 456 525 24,000  Level Washington Center
02:06PM 36.7122 -79.6831 214° Southwest 456 525 24,000  Level Washington Center
02:07PM 36.6089 -79.7708 214° Southwest 456 525 24,000  Level Washington Center
02:08PM 36.4614 -79.8828 211° Southwest 469 540 24,000 -420 Level Atlanta Center
02:09PM 36.3619 -79.9653 214° Southwest 455 524 23,100 -1,020 Descending Atlanta Center
02:10PM 36.2644 -80.0447 213° Southwest 415 478 22,000 -780 Descending Atlanta Center
02:11PM 36.1772 -80.1236 216° Southwest 403 464 21,600 -840 Descending Atlanta Center
02:12PM 36.0900 -80.1972 214° Southwest 397 457 20,400 -1,380 Descending Atlanta Center
02:13PM 36.0125 -80.2600 213° Southwest 384 442 18,900 -1,500 Descending Atlanta Center
02:14PM 35.9214 -80.3439 217° Southwest 384 442 17,400 -1,680 Descending Atlanta Center
02:15PM 35.8603 -80.3978 216° Southwest 331 381 15,900 -1,800 Descending Atlanta Center
02:16PM 35.7831 -80.4628 214° Southwest 307 353 14,100 -1,800 Descending Atlanta Center
02:17PM 35.7117 -80.5247 215° Southwest 314 361 12,300 -1,920 Descending Atlanta Center
02:18PM 35.6517 -80.6117 230° Southwest 312 359 10,100 -1,860 Descending Atlanta Center
02:19PM 35.6017 -80.6953 234° Southwest 312 359 8,400 -1,620 Descending Atlanta Center
02:20PM 35.5600 -80.7686 235° Southwest 297 342 7,000 -1,500 Descending Atlanta Center
02:21PM 35.5097 -80.8419 230° Southwest 299 344 5,500 -1,440 Descending Atlanta Center
02:22PM 35.4572 -80.9053 225° Southwest 279 321 4,100 -780 Descending Atlanta Center
02:23PM 35.3850 -80.9436 203° Southwest 260 299 4,000 -540 Descending Atlanta Center
02:25PM 35.3183 -80.9486 184° South 220 253 3,000 -1,080 Descending Atlanta Center
02:26PM 35.2642 -80.9431 175° South 141 162 1,700 -1,200 Descending Atlanta Center
02:28PM 35.2137 -80.9491 219° Southwest  Level Estimated
02:35PM 35.2137 -80.9491 219° Southwest  Level Estimated